Time;durP1;ratioP1;P1;durP2;ratioP2;P2;SDS_P1;SDS_P2;PMS_P1;PMS_P2;Temp;Humidity;BMP_temperature;BMP_pressure;BME280_temperature;BME280_humidity;BME280_pressure;Samples;Min_cycle;Max_cycle;Signal;HPM_P1;HPM_P2
2023/04/30 00:00:56;;;;;;;15.30;9.20;;;;;;;;;;5025756;28;20415;-44
2023/04/30 00:03:23;;;;;;;12.40;9.00;;;;;;;;;;5020218;28;20482;-45
2023/04/30 00:05:52;;;;;;;16.80;10.73;;;;;;;;;;5014617;28;20498;-45
2023/04/30 00:08:18;;;;;;;13.40;9.90;;;;;;;;;;5016420;28;20441;-44
2023/04/30 00:10:44;;;;;;;16.70;10.13;;;;;;;;;;5019766;28;20555;-45
2023/04/30 00:13:12;;;;;;;15.00;9.30;;;;;;;;;;5024637;28;20838;-44
2023/04/30 00:15:38;;;;;;;16.77;9.13;;;;;;;;;;5014120;28;20462;-43
2023/04/30 00:18:05;;;;;;;12.97;9.77;;;;;;;;;;5013790;28;20436;-44
2023/04/30 00:20:31;;;;;;;14.60;9.47;;;;;;;;;;5014145;28;20492;-44
2023/04/30 00:22:57;;;;;;;15.30;10.37;;;;;;;;;;5014354;28;20404;-44
2023/04/30 00:25:23;;;;;;;11.63;8.17;;;;;;;;;;5014107;28;20400;-44
2023/04/30 00:27:50;;;;;;;14.27;9.23;;;;;;;;;;5014127;28;20404;-45
2023/04/30 00:30:16;;;;;;;14.47;8.83;;;;;;;;;;5013852;28;20452;-44
2023/04/30 00:32:42;;;;;;;13.13;9.30;;;;;;;;;;5014132;28;20412;-44
2023/04/30 00:35:08;;;;;;;11.33;8.13;;;;;;;;;;5014144;28;20401;-44
2023/04/30 00:37:34;;;;;;;14.70;9.47;;;;;;;;;;5013837;28;20405;-43
2023/04/30 00:40:00;;;;;;;16.67;10.10;;;;;;;;;;5013692;28;20470;-44
2023/04/30 00:42:26;;;;;;;14.20;9.43;;;;;;;;;;5013370;28;21007;-45
2023/04/30 00:44:51;;;;;;;16.17;9.30;;;;;;;;;;5013328;28;20926;-45
2023/04/30 00:47:17;;;;;;;13.87;10.60;;;;;;;;;;5013868;28;20412;-44
2023/04/30 00:49:44;;;;;;;15.13;9.47;;;;;;;;;;5013366;28;20468;-44
2023/04/30 00:52:09;;;;;;;17.93;11.00;;;;;;;;;;5013678;28;20411;-45
2023/04/30 00:54:35;;;;;;;14.03;9.47;;;;;;;;;;5014154;28;20499;-44
2023/04/30 00:57:02;;;;;;;16.37;10.63;;;;;;;;;;5014009;28;20412;-44
2023/04/30 00:59:29;;;;;;;16.73;10.10;;;;;;;;;;5013451;28;20481;-43
2023/04/30 01:01:55;;;;;;;12.93;10.20;;;;;;;;;;5013263;28;20408;-44
2023/04/30 01:04:21;;;;;;;13.57;9.97;;;;;;;;;;5012724;28;20931;-44
2023/04/30 01:06:47;;;;;;;17.57;8.80;;;;;;;;;;5013434;28;20479;-46
2023/04/30 01:09:13;;;;;;;20.17;11.33;;;;;;;;;;5012081;28;20953;-45
2023/04/30 01:11:49;;;;;;;20.53;12.00;;;;;;;;;;5011647;28;20503;-44
2023/04/30 01:14:28;;;;;;;16.83;11.73;;;;;;;;;;5012674;28;20838;-44
2023/04/30 01:16:58;;;;;;;16.67;10.93;;;;;;;;;;5013305;28;20490;-45
2023/04/30 01:19:30;;;;;;;17.37;11.00;;;;;;;;;;5013011;28;20518;-45
2023/04/30 01:22:00;;;;;;;17.53;9.53;;;;;;;;;;5013202;28;20500;-44
2023/04/30 01:24:35;;;;;;;17.67;11.33;;;;;;;;;;5012767;28;20403;-44
2023/04/30 01:27:15;;;;;;;16.20;10.75;;;;;;;;;;5013260;28;20444;-45
2023/04/30 01:29:42;;;;;;;23.33;12.30;;;;;;;;;;5012966;28;20200;-44
2023/04/30 01:32:09;;;;;;;14.25;10.30;;;;;;;;;;5013155;28;20899;-44
2023/04/30 01:34:35;;;;;;;18.90;12.45;;;;;;;;;;5013265;28;20248;-45
2023/04/30 01:37:20;;;;;;;15.77;10.90;;;;;;;;;;5012999;28;20244;-45
2023/04/30 01:40:01;;;;;;;22.08;11.32;;;;;;;;;;5012888;28;20439;-45
2023/04/30 01:42:41;;;;;;;17.10;11.48;;;;;;;;;;5012012;28;20537;-43
2023/04/30 01:45:32;;;;;;;17.77;10.90;;;;;;;;;;5013167;28;20644;-44
2023/04/30 01:48:06;;;;;;;22.67;12.25;;;;;;;;;;5013115;28;20439;-44
2023/04/30 01:50:49;;;;;;;18.03;12.10;;;;;;;;;;5013314;28;20210;-45
2023/04/30 01:53:21;;;;;;;17.73;11.90;;;;;;;;;;5013018;28;20408;-45
2023/04/30 01:55:51;;;;;;;20.03;13.13;;;;;;;;;;5012941;28;20403;-44
2023/04/30 01:58:17;;;;;;;21.02;15.23;;;;;;;;;;5011689;28;20458;-45
2023/04/30 02:00:43;;;;;;;18.17;12.77;;;;;;;;;;5013261;28;20177;-45
2023/04/30 02:03:09;;;;;;;18.23;12.67;;;;;;;;;;5013081;28;20183;-44
2023/04/30 02:05:35;;;;;;;16.87;11.10;;;;;;;;;;5013057;28;20406;-45
2023/04/30 02:08:02;;;;;;;22.00;12.90;;;;;;;;;;5012707;28;20423;-42
2023/04/30 02:10:29;;;;;;;23.88;11.98;;;;;;;;;;5013128;28;20447;-44
2023/04/30 02:12:55;;;;;;;22.23;13.20;;;;;;;;;;5013317;28;20172;-45
2023/04/30 02:15:21;;;;;;;19.50;12.43;;;;;;;;;;5012997;28;20658;-45
2023/04/30 02:17:47;;;;;;;21.03;12.03;;;;;;;;;;5012856;28;20434;-45
2023/04/30 02:20:13;;;;;;;19.60;12.23;;;;;;;;;;5012393;28;21045;-45
2023/04/30 02:22:39;;;;;;;21.80;11.90;;;;;;;;;;5012945;28;20433;-45
2023/04/30 02:25:05;;;;;;;21.40;12.63;;;;;;;;;;5013008;28;20172;-45
2023/04/30 02:27:32;;;;;;;20.02;12.38;;;;;;;;;;5010922;28;20652;-45
2023/04/30 02:29:58;;;;;;;24.93;13.57;;;;;;;;;;5011519;28;20684;-44
2023/04/30 02:32:24;;;;;;;18.95;12.80;;;;;;;;;;5012675;28;20461;-44
2023/04/30 02:34:50;;;;;;;23.35;13.73;;;;;;;;;;5012712;28;20522;-45
2023/04/30 02:37:16;;;;;;;28.00;14.00;;;;;;;;;;5014779;28;20195;-45
2023/04/30 02:39:42;;;;;;;25.53;14.30;;;;;;;;;;5021470;28;20887;-45
2023/04/30 02:42:08;;;;;;;19.83;13.03;;;;;;;;;;5025301;28;20404;-45
2023/04/30 02:44:34;;;;;;;19.15;12.30;;;;;;;;;;5023665;28;20407;-44
2023/04/30 02:47:01;;;;;;;35.08;21.67;;;;;;;;;;5018250;28;20644;-44
2023/04/30 02:49:27;;;;;;;23.92;14.25;;;;;;;;;;5027581;28;20209;-46
2023/04/30 02:51:53;;;;;;;22.65;14.38;;;;;;;;;;5027687;28;20180;-44
2023/04/30 02:54:19;;;;;;;21.17;14.32;;;;;;;;;;5021695;28;20313;-45
2023/04/30 02:56:46;;;;;;;22.77;15.20;;;;;;;;;;5020037;28;20649;-45
2023/04/30 02:59:12;;;;;;;18.42;13.80;;;;;;;;;;5016686;28;20814;-45
2023/04/30 03:01:38;;;;;;;24.35;14.48;;;;;;;;;;5019737;28;20633;-45
2023/04/30 03:04:04;;;;;;;21.77;12.97;;;;;;;;;;5027436;28;20181;-44
2023/04/30 03:06:33;;;;;;;22.17;13.75;;;;;;;;;;5023875;28;20407;-44
2023/04/30 03:09:00;;;;;;;23.48;15.68;;;;;;;;;;5023712;28;20298;-45
2023/04/30 03:11:26;;;;;;;19.45;13.73;;;;;;;;;;5019083;28;20171;-44
2023/04/30 03:13:52;;;;;;;18.58;12.80;;;;;;;;;;5012805;28;20292;-43
2023/04/30 03:16:19;;;;;;;22.02;12.32;;;;;;;;;;5026201;28;20172;-44
2023/04/30 03:18:45;;;;;;;20.33;13.05;;;;;;;;;;5021975;28;20231;-44
2023/04/30 03:21:11;;;;;;;18.95;13.35;;;;;;;;;;5026798;28;20176;-43
2023/04/30 03:23:37;;;;;;;19.00;12.37;;;;;;;;;;5019856;28;20172;-45
2023/04/30 03:26:03;;;;;;;21.53;13.83;;;;;;;;;;5020847;28;20415;-44
2023/04/30 03:28:29;;;;;;;22.93;14.20;;;;;;;;;;5011138;28;20450;-44
2023/04/30 03:30:55;;;;;;;23.33;15.43;;;;;;;;;;5022102;28;20461;-44
2023/04/30 03:33:21;;;;;;;24.27;14.15;;;;;;;;;;5024600;28;20417;-43
2023/04/30 03:35:48;;;;;;;23.30;14.23;;;;;;;;;;5019023;28;20548;-43
2023/04/30 03:38:14;;;;;;;23.83;15.77;;;;;;;;;;5022053;28;21005;-43
2023/04/30 03:40:40;;;;;;;24.05;15.65;;;;;;;;;;5020173;28;20180;-43
2023/04/30 03:43:06;;;;;;;20.40;14.13;;;;;;;;;;5016985;28;20267;-43
2023/04/30 03:45:32;;;;;;;26.30;16.70;;;;;;;;;;5023029;28;20419;-44
2023/04/30 03:47:58;;;;;;;27.07;16.10;;;;;;;;;;5025836;28;20861;-44
2023/04/30 03:50:24;;;;;;;21.67;14.40;;;;;;;;;;5021511;28;20834;-43
2023/04/30 03:52:50;;;;;;;25.27;15.88;;;;;;;;;;5015586;28;20496;-45
2023/04/30 03:55:17;;;;;;;25.73;15.48;;;;;;;;;;5018417;28;20340;-44
2023/04/30 03:57:43;;;;;;;21.63;13.50;;;;;;;;;;5019990;28;20187;-45
2023/04/30 04:00:09;;;;;;;23.07;15.30;;;;;;;;;;5022421;28;20583;-44
2023/04/30 04:02:36;;;;;;;24.98;15.70;;;;;;;;;;5020584;28;20415;-43
2023/04/30 04:05:02;;;;;;;28.23;16.60;;;;;;;;;;5023563;28;20207;-44
2023/04/30 04:07:28;;;;;;;27.88;16.83;;;;;;;;;;5018931;28;20215;-45
2023/04/30 04:09:54;;;;;;;26.13;16.00;;;;;;;;;;5011868;28;20236;-43
2023/04/30 04:12:20;;;;;;;24.52;14.93;;;;;;;;;;5025615;28;20464;-44
2023/04/30 04:14:46;;;;;;;31.42;17.13;;;;;;;;;;5021850;28;20183;-44
2023/04/30 04:17:12;;;;;;;28.87;16.63;;;;;;;;;;5025929;28;20167;-44
2023/04/30 04:19:39;;;;;;;23.52;14.95;;;;;;;;;;5018751;28;20450;-43
2023/04/30 04:22:05;;;;;;;26.48;16.10;;;;;;;;;;5014359;28;20202;-45
2023/04/30 04:24:31;;;;;;;23.13;16.40;;;;;;;;;;5015810;28;20233;-43
2023/04/30 04:26:57;;;;;;;27.87;17.27;;;;;;;;;;5022827;28;20655;-43
2023/04/30 04:29:23;;;;;;;25.67;17.20;;;;;;;;;;5018018;28;20518;-44
2023/04/30 04:31:49;;;;;;;26.30;15.32;;;;;;;;;;5020526;28;20812;-44
2023/04/30 04:34:16;;;;;;;24.35;16.40;;;;;;;;;;5021597;28;20214;-44
2023/04/30 04:36:42;;;;;;;28.48;15.50;;;;;;;;;;5019164;28;20173;-44
2023/04/30 04:39:08;;;;;;;21.90;16.35;;;;;;;;;;5033505;28;20192;-44
2023/04/30 04:41:34;;;;;;;34.70;15.63;;;;;;;;;;5033662;28;20639;-44
2023/04/30 04:44:02;;;;;;;23.08;16.15;;;;;;;;;;5033506;28;20171;-44
2023/04/30 04:46:28;;;;;;;29.85;17.77;;;;;;;;;;5028963;28;20176;-44
2023/04/30 04:48:54;;;;;;;21.88;15.90;;;;;;;;;;5012748;28;20204;-44
2023/04/30 04:51:21;;;;;;;25.80;15.07;;;;;;;;;;5013825;28;20618;-43
2023/04/30 04:53:47;;;;;;;20.58;16.27;;;;;;;;;;5013702;28;20557;-44
2023/04/30 04:56:13;;;;;;;23.60;16.13;;;;;;;;;;5013758;28;20171;-45
2023/04/30 04:58:39;;;;;;;27.05;16.40;;;;;;;;;;5013080;28;20510;-44
2023/04/30 05:01:05;;;;;;;25.63;16.50;;;;;;;;;;5012754;28;20264;-45
2023/04/30 05:03:32;;;;;;;25.85;16.75;;;;;;;;;;5013668;28;20407;-44
2023/04/30 05:05:58;;;;;;;23.73;17.17;;;;;;;;;;5013429;28;20191;-43
2023/04/30 05:08:24;;;;;;;26.75;17.02;;;;;;;;;;5013170;28;20423;-44
2023/04/30 05:10:50;;;;;;;27.03;17.50;;;;;;;;;;5013559;28;20607;-44
2023/04/30 05:13:16;;;;;;;26.50;17.60;;;;;;;;;;5013451;28;20450;-43
2023/04/30 05:15:42;;;;;;;29.40;19.23;;;;;;;;;;5013375;28;20168;-43
2023/04/30 05:18:08;;;;;;;26.77;18.30;;;;;;;;;;5012725;28;20439;-45
2023/04/30 05:20:34;;;;;;;28.97;17.57;;;;;;;;;;5013279;28;20595;-43
2023/04/30 05:23:00;;;;;;;27.33;18.20;;;;;;;;;;5013172;28;20406;-45
2023/04/30 05:25:26;;;;;;;30.83;16.90;;;;;;;;;;5013147;28;20411;-44
2023/04/30 05:27:52;;;;;;;33.07;20.40;;;;;;;;;;5012915;28;20461;-44
2023/04/30 05:30:18;;;;;;;26.87;19.33;;;;;;;;;;5010919;28;20468;-43
2023/04/30 05:32:49;;;;;;;27.20;17.73;;;;;;;;;;5012563;28;20427;-44
2023/04/30 05:35:15;;;;;;;29.23;18.80;;;;;;;;;;5013010;28;20401;-45
2023/04/30 05:37:41;;;;;;;26.33;17.07;;;;;;;;;;5012745;28;20216;-44
2023/04/30 05:40:08;;;;;;;27.90;19.93;;;;;;;;;;5012609;28;20400;-46
2023/04/30 05:42:34;;;;;;;29.27;19.40;;;;;;;;;;5012832;28;20402;-45
2023/04/30 05:45:01;;;;;;;26.60;17.43;;;;;;;;;;5012839;28;20455;-45
2023/04/30 05:47:27;;;;;;;25.03;18.13;;;;;;;;;;5012983;28;20409;-43
2023/04/30 05:49:52;;;;;;;22.17;16.33;;;;;;;;;;5012316;28;20862;-45
2023/04/30 05:52:19;;;;;;;25.40;16.03;;;;;;;;;;5012652;28;20420;-43
2023/04/30 05:54:46;;;;;;;24.40;15.90;;;;;;;;;;5012578;28;20915;-44
2023/04/30 05:57:12;;;;;;;21.47;15.27;;;;;;;;;;5012615;28;20880;-43
2023/04/30 05:59:39;;;;;;;21.40;15.60;;;;;;;;;;5012233;28;20526;-43
2023/04/30 06:02:05;;;;;;;26.30;18.10;;;;;;;;;;5010764;28;20432;-44
2023/04/30 06:04:31;;;;;;;22.17;16.07;;;;;;;;;;5012562;28;20544;-44
2023/04/30 06:06:57;;;;;;;26.13;16.20;;;;;;;;;;5012606;28;20403;-44
2023/04/30 06:09:23;;;;;;;24.00;16.27;;;;;;;;;;5011926;28;20503;-44
2023/04/30 06:11:49;;;;;;;24.17;16.10;;;;;;;;;;5012123;28;20413;-44
2023/04/30 06:14:16;;;;;;;22.53;15.70;;;;;;;;;;5012281;28;20412;-44
2023/04/30 06:16:42;;;;;;;22.07;15.57;;;;;;;;;;5012282;28;20401;-44
2023/04/30 06:19:08;;;;;;;24.07;16.37;;;;;;;;;;5011874;28;20452;-46
2023/04/30 06:21:34;;;;;;;26.10;14.77;;;;;;;;;;5012222;28;20851;-44
2023/04/30 06:24:00;;;;;;;19.60;14.50;;;;;;;;;;5012134;28;20417;-44
2023/04/30 06:26:26;;;;;;;19.57;14.33;;;;;;;;;;5012448;28;20409;-45
2023/04/30 06:28:52;;;;;;;25.90;16.47;;;;;;;;;;5012574;28;20488;-41
2023/04/30 06:31:18;;;;;;;19.67;14.50;;;;;;;;;;5011138;28;20466;-45
2023/04/30 06:33:44;;;;;;;19.33;14.23;;;;;;;;;;5011843;28;20410;-43
2023/04/30 06:36:10;;;;;;;21.00;13.90;;;;;;;;;;5011595;28;20429;-43
2023/04/30 06:38:36;;;;;;;22.80;15.20;;;;;;;;;;5022774;28;20478;-44
2023/04/30 06:41:02;;;;;;;18.07;13.43;;;;;;;;;;5015057;28;21010;-41
2023/04/30 06:43:28;;;;;;;28.07;13.50;;;;;;;;;;5017967;28;20413;-41
2023/04/30 06:45:54;;;;;;;18.93;13.70;;;;;;;;;;5020349;28;20782;-42
2023/04/30 06:48:20;;;;;;;20.30;12.87;;;;;;;;;;4999365;28;20447;-42
2023/04/30 06:50:46;;;;;;;20.40;13.27;;;;;;;;;;5015061;28;20469;-42
2023/04/30 06:53:12;;;;;;;20.33;14.20;;;;;;;;;;5025648;28;20743;-42
2023/04/30 06:55:38;;;;;;;15.60;11.73;;;;;;;;;;5023686;28;20418;-42
2023/04/30 06:58:04;;;;;;;21.10;12.87;;;;;;;;;;5008093;28;20434;-43
2023/04/30 07:00:31;;;;;;;20.07;13.07;;;;;;;;;;5016169;28;20454;-43
2023/04/30 07:02:59;;;;;;;27.37;13.27;;;;;;;;;;5018365;28;20434;-42
2023/04/30 07:05:25;;;;;;;19.53;13.07;;;;;;;;;;5013934;28;20425;-42
2023/04/30 07:07:51;;;;;;;20.90;12.50;;;;;;;;;;5020351;28;20419;-42
2023/04/30 07:10:18;;;;;;;16.30;11.27;;;;;;;;;;5021562;28;20513;-42
2023/04/30 07:12:44;;;;;;;14.83;11.53;;;;;;;;;;5020222;28;20406;-43
2023/04/30 07:15:10;;;;;;;15.77;11.13;;;;;;;;;;5013751;28;20418;-42
2023/04/30 07:17:37;;;;;;;16.37;11.93;;;;;;;;;;5009870;28;20838;-42
2023/04/30 07:20:03;;;;;;;13.70;11.13;;;;;;;;;;5021455;28;20441;-41
2023/04/30 07:22:30;;;;;;;14.90;10.20;;;;;;;;;;5022839;28;20407;-42
2023/04/30 07:24:56;;;;;;;15.93;10.77;;;;;;;;;;5024033;28;20935;-43
2023/04/30 07:27:22;;;;;;;16.77;11.13;;;;;;;;;;5021420;28;20476;-43
2023/04/30 07:29:48;;;;;;;16.40;10.90;;;;;;;;;;5016097;28;20550;-45
2023/04/30 07:32:15;;;;;;;17.60;11.07;;;;;;;;;;5017894;28;20427;-42
2023/04/30 07:34:41;;;;;;;14.90;10.10;;;;;;;;;;5030326;28;20787;-44
2023/04/30 07:37:08;;;;;;;14.57;11.83;;;;;;;;;;5020077;28;20463;-42
2023/04/30 07:39:34;;;;;;;13.50;10.53;;;;;;;;;;5019694;28;20915;-43
2023/04/30 07:42:02;;;;;;;15.00;10.97;;;;;;;;;;5024691;28;20406;-42
2023/04/30 07:44:28;;;;;;;11.07;8.57;;;;;;;;;;5017577;28;20989;-43
2023/04/30 07:46:54;;;;;;;11.70;9.20;;;;;;;;;;5017370;28;20502;-44
2023/04/30 07:49:20;;;;;;;12.60;7.67;;;;;;;;;;5011126;28;20435;-42
2023/04/30 07:51:46;;;;;;;9.20;7.63;;;;;;;;;;5023054;28;20435;-42
2023/04/30 07:54:12;;;;;;;12.33;8.10;;;;;;;;;;5020361;28;20811;-43
2023/04/30 07:56:38;;;;;;;10.20;7.33;;;;;;;;;;5015643;28;20756;-42
2023/04/30 07:59:04;;;;;;;8.57;7.33;;;;;;;;;;5017632;28;20480;-43
2023/04/30 08:01:30;;;;;;;8.30;7.40;;;;;;;;;;5016894;28;20458;-43
2023/04/30 08:03:56;;;;;;;9.00;8.10;;;;;;;;;;5014576;28;20449;-44
2023/04/30 08:06:23;;;;;;;9.03;7.80;;;;;;;;;;5020438;28;20426;-42
2023/04/30 08:08:48;;;;;;;8.50;7.07;;;;;;;;;;5017975;28;20492;-42
2023/04/30 08:11:15;;;;;;;8.00;7.20;;;;;;;;;;5017015;28;20505;-42
2023/04/30 08:13:41;;;;;;;8.63;7.33;;;;;;;;;;5012102;28;20410;-42
2023/04/30 08:16:07;;;;;;;8.97;8.03;;;;;;;;;;5017846;28;20505;-43
2023/04/30 08:18:33;;;;;;;11.73;9.20;;;;;;;;;;5011810;28;21031;-43
2023/04/30 08:21:00;;;;;;;7.93;7.13;;;;;;;;;;5023820;28;20468;-45
2023/04/30 08:23:26;;;;;;;11.23;7.00;;;;;;;;;;5019315;28;21017;-43
2023/04/30 08:25:53;;;;;;;9.07;7.20;;;;;;;;;;5020176;28;20426;-44
2023/04/30 08:28:19;;;;;;;8.93;6.97;;;;;;;;;;5026451;28;20487;-43
2023/04/30 08:30:45;;;;;;;8.23;6.70;;;;;;;;;;5015009;28;20963;-43
2023/04/30 08:33:11;;;;;;;10.10;6.60;;;;;;;;;;5013258;28;20489;-43
2023/04/30 08:35:37;;;;;;;7.67;6.40;;;;;;;;;;5012910;28;20411;-45
2023/04/30 08:38:03;;;;;;;8.40;6.73;;;;;;;;;;5012993;28;20420;-44
2023/04/30 08:40:30;;;;;;;6.57;5.90;;;;;;;;;;5013198;28;20407;-44
2023/04/30 08:43:06;;;;;;;7.23;6.43;;;;;;;;;;5012229;28;20473;-43
2023/04/30 08:45:32;;;;;;;8.53;7.07;;;;;;;;;;5013635;28;20933;-43
2023/04/30 08:47:59;;;;;;;8.90;6.30;;;;;;;;;;5013333;28;20876;-44
2023/04/30 08:50:25;;;;;;;8.80;6.60;;;;;;;;;;5013282;28;20454;-43
2023/04/30 08:52:51;;;;;;;9.00;7.10;;;;;;;;;;5013331;28;20808;-43
2023/04/30 08:55:17;;;;;;;8.13;6.83;;;;;;;;;;5013027;28;20399;-44
2023/04/30 08:57:43;;;;;;;6.77;5.77;;;;;;;;;;5012895;28;20425;-43
2023/04/30 09:00:09;;;;;;;6.10;5.50;;;;;;;;;;5011129;28;20434;-43
2023/04/30 09:02:39;;;;;;;9.90;5.33;;;;;;;;;;5012271;28;20525;-43
2023/04/30 09:05:09;;;;;;;7.90;5.63;;;;;;;;;;5012820;28;20950;-46
2023/04/30 09:07:36;;;;;;;6.20;5.30;;;;;;;;;;5012759;28;20403;-44
2023/04/30 09:10:03;;;;;;;5.80;4.90;;;;;;;;;;5012621;28;20455;-43
2023/04/30 09:12:29;;;;;;;6.77;5.07;;;;;;;;;;5012502;28;20405;-44
2023/04/30 09:15:03;;;;;;;6.00;4.73;;;;;;;;;;5012799;28;20406;-44
2023/04/30 09:17:30;;;;;;;5.90;5.33;;;;;;;;;;5012824;28;20395;-43
2023/04/30 09:20:09;;;;;;;6.20;5.60;;;;;;;;;;5011968;28;20462;-44
2023/04/30 09:22:36;;;;;;;5.70;5.20;;;;;;;;;;5013169;28;20431;-44
2023/04/30 09:25:02;;;;;;;6.90;5.67;;;;;;;;;;5012467;28;20922;-43
2023/04/30 09:27:28;;;;;;;6.20;4.83;;;;;;;;;;5012619;28;20411;-43
2023/04/30 09:29:55;;;;;;;9.43;7.30;;;;;;;;;;5010803;28;20462;-43
2023/04/30 09:32:21;;;;;;;9.67;6.50;;;;;;;;;;5011354;28;20809;-44
2023/04/30 09:34:47;;;;;;;7.60;6.63;;;;;;;;;;5012377;28;20446;-45
2023/04/30 09:37:13;;;;;;;6.73;5.40;;;;;;;;;;5012286;28;20411;-45
2023/04/30 09:40:08;;;;;;;8.70;6.00;;;;;;;;;;5011748;28;21002;-43
2023/04/30 09:42:34;;;;;;;10.60;5.37;;;;;;;;;;5003851;28;20416;-43
2023/04/30 09:45:00;;;;;;;5.50;4.50;;;;;;;;;;5012207;28;20457;-43
2023/04/30 09:47:30;;;;;;;5.70;5.20;;;;;;;;;;5011557;28;20757;-44
2023/04/30 09:49:59;;;;;;;5.63;5.10;;;;;;;;;;5011681;28;20466;-43
2023/04/30 09:52:25;;;;;;;6.03;5.43;;;;;;;;;;5013197;28;20926;-44
2023/04/30 09:54:51;;;;;;;8.07;6.23;;;;;;;;;;5010712;28;20408;-44
2023/04/30 09:57:19;;;;;;;6.00;5.40;;;;;;;;;;5010290;28;20411;-43
2023/04/30 09:59:46;;;;;;;7.60;6.00;;;;;;;;;;4999505;28;20451;-45
2023/04/30 10:02:13;;;;;;;7.50;6.80;;;;;;;;;;5010972;28;20415;-43
2023/04/30 10:04:42;;;;;;;6.13;5.53;;;;;;;;;;4999462;28;20419;-43
2023/04/30 10:07:09;;;;;;;9.10;6.10;;;;;;;;;;4990433;28;20900;-43
2023/04/30 10:09:39;;;;;;;10.63;6.13;;;;;;;;;;5003245;28;20471;-45
2023/04/30 10:12:06;;;;;;;5.50;5.00;;;;;;;;;;4991840;28;20766;-44
2023/04/30 10:14:33;;;;;;;7.20;4.83;;;;;;;;;;4992048;28;20407;-44
2023/04/30 10:17:11;;;;;;;4.87;4.37;;;;;;;;;;4991712;28;20404;-43
2023/04/30 10:19:40;;;;;;;4.77;4.33;;;;;;;;;;4991553;28;20439;-43
2023/04/30 10:22:07;;;;;;;5.13;4.70;;;;;;;;;;4991832;28;20912;-43
2023/04/30 10:24:33;;;;;;;5.00;4.37;;;;;;;;;;4991654;28;20438;-45
2023/04/30 10:26:59;;;;;;;4.23;3.40;;;;;;;;;;4991949;28;20427;-44
2023/04/30 10:29:25;;;;;;;5.03;4.63;;;;;;;;;;4992167;28;20435;-43
2023/04/30 10:31:52;;;;;;;5.43;4.90;;;;;;;;;;5005366;28;20501;-43
2023/04/30 10:34:22;;;;;;;4.37;3.97;;;;;;;;;;4991736;28;20908;-44
2023/04/30 10:36:54;;;;;;;5.40;4.37;;;;;;;;;;4991783;28;20746;-44
2023/04/30 10:39:21;;;;;;;7.60;3.53;;;;;;;;;;4991504;28;20431;-44
2023/04/30 10:41:48;;;;;;;4.70;4.13;;;;;;;;;;4992087;28;20422;-43
2023/04/30 10:44:14;;;;;;;4.20;3.60;;;;;;;;;;4995728;28;20415;-45
2023/04/30 10:46:41;;;;;;;3.80;3.50;;;;;;;;;;4998669;28;20474;-43
2023/04/30 10:49:07;;;;;;;3.63;3.30;;;;;;;;;;4991728;28;20805;-45
2023/04/30 10:51:46;;;;;;;4.30;3.00;;;;;;;;;;4991876;28;20467;-45
2023/04/30 10:54:16;;;;;;;3.70;3.10;;;;;;;;;;4991718;28;20508;-44
2023/04/30 10:56:44;;;;;;;3.40;3.10;;;;;;;;;;4991822;28;20494;-44
2023/04/30 10:59:11;;;;;;;4.13;3.73;;;;;;;;;;4998720;28;20452;-44
2023/04/30 11:01:56;;;;;;;4.77;3.97;;;;;;;;;;5015285;28;20486;-43
2023/04/30 11:04:23;;;;;;;3.93;3.63;;;;;;;;;;5015246;28;20431;-44
2023/04/30 11:06:49;;;;;;;7.00;4.90;;;;;;;;;;4998440;28;20420;-44
2023/04/30 11:09:15;;;;;;;3.27;2.97;;;;;;;;;;4994996;28;20969;-44
2023/04/30 11:11:43;;;;;;;4.30;3.03;;;;;;;;;;4995214;28;20428;-43
2023/04/30 11:14:10;;;;;;;4.13;3.73;;;;;;;;;;4995576;28;20430;-43
2023/04/30 11:16:36;;;;;;;4.03;3.73;;;;;;;;;;4995138;28;20420;-44
2023/04/30 11:19:06;;;;;;;3.30;3.00;;;;;;;;;;4994896;28;20451;-43
2023/04/30 11:21:32;;;;;;;5.50;3.57;;;;;;;;;;4995424;28;20462;-44
2023/04/30 11:24:03;;;;;;;3.93;3.63;;;;;;;;;;4994818;28;20412;-43
2023/04/30 11:26:29;;;;;;;4.37;3.93;;;;;;;;;;4995069;28;20420;-43
2023/04/30 11:28:56;;;;;;;3.97;3.67;;;;;;;;;;5010057;28;20930;-43
2023/04/30 11:31:22;;;;;;;7.20;3.33;;;;;;;;;;5013907;28;20516;-43
2023/04/30 11:33:48;;;;;;;6.53;3.80;;;;;;;;;;5007104;28;20448;-44
2023/04/30 11:36:14;;;;;;;3.70;3.40;;;;;;;;;;4995679;28;20417;-44
2023/04/30 11:38:41;;;;;;;7.57;3.90;;;;;;;;;;4994950;28;20416;-44
2023/04/30 11:41:07;;;;;;;3.70;3.40;;;;;;;;;;4995587;28;20439;-45
2023/04/30 11:43:34;;;;;;;3.90;3.50;;;;;;;;;;4995478;28;20527;-44
2023/04/30 11:46:13;;;;;;;3.80;3.30;;;;;;;;;;4997316;28;20416;-45
2023/04/30 11:48:40;;;;;;;3.40;3.10;;;;;;;;;;5011115;28;20454;-45
2023/04/30 11:51:16;;;;;;;3.40;3.10;;;;;;;;;;5022617;28;20466;-43
2023/04/30 11:53:42;;;;;;;3.70;3.40;;;;;;;;;;5031338;28;20402;-44
2023/04/30 11:56:08;;;;;;;3.70;3.10;;;;;;;;;;5034305;28;20402;-43
2023/04/30 11:58:36;;;;;;;3.60;3.20;;;;;;;;;;5034112;28;20426;-43
2023/04/30 12:01:02;;;;;;;2.60;2.40;;;;;;;;;;5020815;28;20427;-43
2023/04/30 12:03:29;;;;;;;5.30;2.70;;;;;;;;;;5014694;28;20415;-43
2023/04/30 12:05:55;;;;;;;2.80;2.50;;;;;;;;;;5014634;28;20410;-45
2023/04/30 12:08:21;;;;;;;3.70;2.43;;;;;;;;;;5013792;28;20811;-45
2023/04/30 12:10:47;;;;;;;3.67;3.03;;;;;;;;;;5014118;28;21050;-43
2023/04/30 12:13:15;;;;;;;3.90;2.73;;;;;;;;;;5014784;28;20436;-44
2023/04/30 12:15:41;;;;;;;4.20;3.87;;;;;;;;;;5014555;28;20399;-43
2023/04/30 12:18:12;;;;;;;3.87;2.73;;;;;;;;;;5013822;28;20435;-44
2023/04/30 12:20:39;;;;;;;1.87;1.60;;;;;;;;;;5014437;28;20935;-43
2023/04/30 12:23:05;;;;;;;2.17;1.97;;;;;;;;;;5014279;28;20403;-43
2023/04/30 12:25:31;;;;;;;3.33;3.03;;;;;;;;;;5014297;28;20403;-45
2023/04/30 12:27:58;;;;;;;3.10;2.90;;;;;;;;;;5014176;28;20775;-45
2023/04/30 12:30:25;;;;;;;3.40;2.97;;;;;;;;;;5012620;28;20675;-42
2023/04/30 12:32:53;;;;;;;3.73;2.90;;;;;;;;;;5013531;28;20797;-43
2023/04/30 12:35:20;;;;;;;4.60;3.23;;;;;;;;;;5012887;28;20408;-45
2023/04/30 12:37:47;;;;;;;2.83;2.60;;;;;;;;;;5013741;28;20399;-43
2023/04/30 12:40:13;;;;;;;4.37;3.33;;;;;;;;;;5013891;28;20957;-43
2023/04/30 12:42:41;;;;;;;2.73;2.53;;;;;;;;;;5014062;28;20403;-43
2023/04/30 12:45:08;;;;;;;3.60;2.33;;;;;;;;;;5014232;28;20494;-44
2023/04/30 12:47:39;;;;;;;3.90;2.83;;;;;;;;;;5013924;28;21097;-44
2023/04/30 12:50:07;;;;;;;5.07;3.60;;;;;;;;;;5013462;28;20514;-44
2023/04/30 12:52:33;;;;;;;3.40;3.00;;;;;;;;;;5014080;28;20884;-45
2023/04/30 12:55:13;;;;;;;3.50;3.10;;;;;;;;;;5013320;28;20403;-44
2023/04/30 12:57:39;;;;;;;3.50;3.07;;;;;;;;;;5013838;28;20384;-44
2023/04/30 13:00:07;;;;;;;4.00;2.77;;;;;;;;;;5013412;28;20423;-43
2023/04/30 13:02:33;;;;;;;4.30;3.30;;;;;;;;;;5012134;28;20496;-43
2023/04/30 13:04:59;;;;;;;3.40;3.10;;;;;;;;;;5013603;28;20406;-43
2023/04/30 13:07:25;;;;;;;3.20;2.83;;;;;;;;;;5013593;28;20783;-43
2023/04/30 13:09:51;;;;;;;3.63;2.77;;;;;;;;;;5013525;28;20970;-48
2023/04/30 13:12:18;;;;;;;2.50;2.30;;;;;;;;;;5013498;28;20427;-45
2023/04/30 13:14:44;;;;;;;2.93;2.63;;;;;;;;;;5013012;28;20426;-45
2023/04/30 13:17:12;;;;;;;2.70;2.50;;;;;;;;;;5013072;28;20772;-46
2023/04/30 13:19:38;;;;;;;2.40;2.20;;;;;;;;;;5013019;28;20824;-46
2023/04/30 13:22:04;;;;;;;2.67;2.13;;;;;;;;;;5013221;28;20403;-47
2023/04/30 13:24:30;;;;;;;2.20;1.90;;;;;;;;;;5013218;28;20403;-47
2023/04/30 13:26:58;;;;;;;2.57;1.93;;;;;;;;;;5013076;28;20396;-46
2023/04/30 13:29:24;;;;;;;2.60;2.23;;;;;;;;;;5012585;28;20423;-46
2023/04/30 13:31:50;;;;;;;2.43;2.23;;;;;;;;;;5012169;28;20481;-45
2023/04/30 13:34:16;;;;;;;3.03;2.63;;;;;;;;;;5012478;28;20437;-46
2023/04/30 13:36:42;;;;;;;3.73;2.10;;;;;;;;;;5012903;28;20490;-45
2023/04/30 13:39:08;;;;;;;2.30;2.10;;;;;;;;;;5012433;28;20502;-48
2023/04/30 13:41:34;;;;;;;2.57;2.37;;;;;;;;;;5012655;28;20408;-48
2023/04/30 13:44:00;;;;;;;2.07;1.97;;;;;;;;;;5012773;28;20403;-48
2023/04/30 13:46:26;;;;;;;3.00;2.17;;;;;;;;;;5012749;28;20471;-47
2023/04/30 13:48:52;;;;;;;3.10;2.40;;;;;;;;;;5012454;28;20419;-46
2023/04/30 13:51:18;;;;;;;3.03;2.70;;;;;;;;;;5012679;28;20442;-46
2023/04/30 13:53:44;;;;;;;2.50;2.30;;;;;;;;;;5012726;28;20495;-46
2023/04/30 13:56:11;;;;;;;2.60;2.40;;;;;;;;;;5012645;28;20477;-46
2023/04/30 13:58:37;;;;;;;2.43;2.23;;;;;;;;;;5012132;28;20553;-46
2023/04/30 14:01:03;;;;;;;2.30;2.10;;;;;;;;;;5012612;28;20493;-46
2023/04/30 14:03:29;;;;;;;2.80;2.17;;;;;;;;;;5010363;28;20462;-47
2023/04/30 14:05:56;;;;;;;2.23;2.03;;;;;;;;;;5012619;28;20410;-47
2023/04/30 14:08:22;;;;;;;2.80;2.40;;;;;;;;;;5012084;28;20569;-45
2023/04/30 14:10:48;;;;;;;2.87;2.43;;;;;;;;;;5012420;28;20542;-45
2023/04/30 14:13:14;;;;;;;2.50;2.30;;;;;;;;;;5012577;28;20395;-46
2023/04/30 14:15:40;;;;;;;3.10;2.03;;;;;;;;;;5012479;28;20403;-47
2023/04/30 14:18:06;;;;;;;2.83;2.63;;;;;;;;;;5011840;28;20435;-47
2023/04/30 14:20:32;;;;;;;2.57;2.00;;;;;;;;;;5012148;28;20406;-46
2023/04/30 14:22:58;;;;;;;3.13;2.43;;;;;;;;;;5012139;28;20898;-46
2023/04/30 14:25:24;;;;;;;4.33;2.57;;;;;;;;;;5012438;28;20446;-45
2023/04/30 14:27:50;;;;;;;5.37;2.83;;;;;;;;;;5012082;28;20469;-44